Impacts METAR Board INFO
IDs:

KATL - Atlanta/Hartsfield-J, GA, US

Updated at: 0830 UTC 22 Jan 2018
Potential Impact None Slight Moderate High
Time21/20Z 21/21Z 21/22Z 21/23Z 22/00Z 22/01Z 22/02Z 22/03Z 22/04Z 22/05Z 22/06Z 22/07Z 22/08Z
VIS10 10 10 10 10 10 10 10 10 10 10 10 10
CIG-- -- -- -- -- -- -- 250 250 200 200 200 200
CoverCLRCLRCLRFEWSCTSCTSCTBKNBKNOVCOVCOVCOVC
FltCatVFRVFRVFRVFRVFRVFRVFRVFRVFRVFRVFRVFRVFR
WX--------------------------
WDir160190170180160140140160150170150140130
WSpd7 5 7 4 4 3 4 4 5 5 3 4 4
WGst-- -- -- -- -- -- -- -- -- -- -- -- --
Raw hourly METARs
KATL 211952Z 16007KT 10SM CLR 20/07 A3019 RMK AO2 SLP221 T02000072 $
KATL 212052Z 19005KT 10SM CLR 20/07 A3017 RMK AO2 SLP214 T02000072 56024 $
KATL 212152Z 17007KT 10SM CLR 19/07 A3018 RMK AO2 SLP219 T01940072 $
KATL 212252Z 18004KT 10SM FEW250 17/08 A3017 RMK AO2 SLP217 T01720078 $
KATL 212352Z 16004KT 10SM FEW200 SCT250 16/07 A3016 RMK AO2 SLP215 T01560067 10206 20156 58001 $
KATL 220052Z 14003KT 10SM SCT250 14/07 A3017 RMK AO2 SLP218 T01440067 $
KATL 220152Z 14004KT 10SM SCT250 14/06 A3017 RMK AO2 SLP219 T01390061 $
KATL 220252Z 16004KT 10SM FEW200 BKN250 12/06 A3017 RMK AO2 SLP218 T01220061 51004 $
KATL 220352Z 15005KT 10SM SCT200 BKN250 13/06 A3017 RMK AO2 SLP217 T01280061 $
KATL 220452Z 17005KT 10SM BKN200 OVC250 12/06 A3017 RMK AO2 SLP213 T01220061 402060039 $
KATL 220552Z 15003KT 10SM OVC200 11/06 A3016 RMK AO2 SLP210 T01110061 10161 20106 58006 $
KATL 220652Z 14004KT 10SM OVC200 11/06 A3013 RMK AO2 SLP200 T01060061 $
KATL 220752Z 13004KT 10SM OVC200 11/06 A3011 RMK AO2 SLP194 T01060056 $